createdAt,value
2023-03-29T00:00:21.897Z,25.04
2023-03-29T00:01:35.910Z,25.04
2023-03-29T00:02:23.006Z,25.03
2023-03-29T00:03:21.927Z,25.03
2023-03-29T00:04:21.925Z,25.03
2023-03-29T00:05:21.902Z,25.03
2023-03-29T00:06:21.877Z,25.03
2023-03-29T00:07:22.485Z,25.03
2023-03-29T00:08:22.170Z,25.04
2023-03-29T00:09:22.143Z,25.04
2023-03-29T00:10:22.143Z,25.03
2023-03-29T00:11:22.127Z,25.04
2023-03-29T00:12:22.151Z,25.03
2023-03-29T00:13:22.128Z,25.04
2023-03-29T00:14:22.115Z,25.03
2023-03-29T00:15:22.124Z,25.03
2023-03-29T00:16:22.165Z,25.03
2023-03-29T00:17:22.104Z,25.03
2023-03-29T00:18:22.108Z,25.03
2023-03-29T00:19:22.086Z,25.03
2023-03-29T00:20:22.081Z,25.02
2023-03-29T00:21:22.084Z,25.02
2023-03-29T00:22:22.050Z,25.02
2023-03-29T00:23:22.075Z,25.02
2023-03-29T00:24:22.099Z,25.03
2023-03-29T00:25:22.117Z,25.02
2023-03-29T00:26:22.114Z,25.02
2023-03-29T00:27:22.121Z,25.02
2023-03-29T00:28:22.169Z,25.02
2023-03-29T00:29:22.164Z,25.02
2023-03-29T00:30:22.176Z,25.02
2023-03-29T00:31:22.217Z,25.02
2023-03-29T00:32:22.260Z,25.02
2023-03-29T00:33:22.254Z,25.02
2023-03-29T00:34:22.249Z,25.02
2023-03-29T00:35:22.293Z,25.02
2023-03-29T00:36:22.280Z,25.03
2023-03-29T00:37:22.336Z,25.03
2023-03-29T00:38:22.343Z,25.02
2023-03-29T00:39:22.366Z,25.02
2023-03-29T00:40:22.359Z,25.02
2023-03-29T00:41:22.369Z,25.02
2023-03-29T00:42:22.388Z,25.01
2023-03-29T00:43:22.413Z,25.02
2023-03-29T00:44:22.411Z,25.01
2023-03-29T00:45:22.497Z,25.01
2023-03-29T00:46:22.485Z,25.01
2023-03-29T00:47:22.461Z,25.01
2023-03-29T00:48:22.480Z,25.01
2023-03-29T00:49:22.499Z,25.01
2023-03-29T00:50:22.594Z,25.01
2023-03-29T00:51:22.530Z,25.01
2023-03-29T00:52:22.578Z,25.00
2023-03-29T00:53:22.559Z,25.01
2023-03-29T00:54:22.581Z,25.01
2023-03-29T00:55:22.608Z,25.01
2023-03-29T00:56:22.635Z,25.01
2023-03-29T00:57:22.826Z,25.01
2023-03-29T00:58:22.638Z,25.01
2023-03-29T00:59:22.666Z,25.00
2023-03-29T01:00:22.709Z,25.00
2023-03-29T01:01:22.792Z,25.00
2023-03-29T01:02:22.786Z,25.00
2023-03-29T01:03:22.877Z,25.01
2023-03-29T01:04:22.725Z,25.00
2023-03-29T01:05:22.781Z,25.00
2023-03-29T01:06:22.948Z,25.00
2023-03-29T01:07:22.814Z,25.00
2023-03-29T01:08:22.788Z,25.00
2023-03-29T01:09:22.818Z,25.00
2023-03-29T01:10:22.850Z,25.00
2023-03-29T01:11:22.876Z,25.00
2023-03-29T01:12:22.888Z,25.00
2023-03-29T01:13:22.925Z,24.99
2023-03-29T01:14:22.967Z,25.00
2023-03-29T01:15:22.944Z,24.99
2023-03-29T01:16:22.992Z,24.99
2023-03-29T01:17:22.981Z,24.99
2023-03-29T01:18:23.044Z,24.99
2023-03-29T01:19:23.043Z,24.99
2023-03-29T01:20:23.139Z,24.99
2023-03-29T01:21:23.077Z,24.99
2023-03-29T01:22:23.093Z,24.98
2023-03-29T01:23:23.113Z,24.98
2023-03-29T01:24:23.132Z,24.99
2023-03-29T01:25:23.193Z,24.98
2023-03-29T01:26:23.239Z,24.98
2023-03-29T01:27:23.243Z,24.98
2023-03-29T01:28:23.260Z,24.98
2023-03-29T01:29:23.284Z,24.99
2023-03-29T01:30:23.324Z,24.99
2023-03-29T01:31:23.372Z,24.99
2023-03-29T01:32:23.393Z,24.98
2023-03-29T01:33:23.382Z,24.98
2023-03-29T01:34:23.360Z,24.98
2023-03-29T01:35:23.418Z,24.97
2023-03-29T01:36:23.388Z,24.98
2023-03-29T01:37:23.427Z,24.97
2023-03-29T01:38:23.487Z,24.98
2023-03-29T01:39:23.442Z,24.98
2023-03-29T01:40:23.488Z,24.97
2023-03-29T01:41:23.507Z,24.97
2023-03-29T01:42:23.482Z,24.98
2023-03-29T01:43:23.595Z,24.97
2023-03-29T01:44:23.550Z,24.97
2023-03-29T01:45:23.588Z,24.97
2023-03-29T01:46:23.641Z,24.97
2023-03-29T01:47:23.673Z,24.97
2023-03-29T01:48:23.650Z,24.96
2023-03-29T01:49:23.664Z,24.96
2023-03-29T01:50:23.725Z,24.96
2023-03-29T01:51:23.701Z,24.97
2023-03-29T01:52:23.725Z,24.96
2023-03-29T01:53:23.793Z,24.97
2023-03-29T01:54:23.775Z,24.97
2023-03-29T01:55:23.807Z,24.96
2023-03-29T01:56:23.817Z,24.96
2023-03-29T01:57:23.898Z,24.96
2023-03-29T01:58:23.871Z,24.96
2023-03-29T01:59:23.895Z,24.96
2023-03-29T02:00:23.897Z,24.96
2023-03-29T02:01:23.936Z,24.96
2023-03-29T02:02:23.976Z,24.95
2023-03-29T02:03:24.088Z,24.96
2023-03-29T02:04:24.019Z,24.96
2023-03-29T02:05:24.024Z,24.96
2023-03-29T02:06:24.058Z,24.96
2023-03-29T02:07:24.092Z,24.96
2023-03-29T02:08:24.085Z,24.96
2023-03-29T02:09:24.108Z,24.95
2023-03-29T02:10:24.122Z,24.96
2023-03-29T02:11:24.145Z,24.95
2023-03-29T02:12:24.176Z,24.95
2023-03-29T02:13:24.191Z,24.95
2023-03-29T02:14:24.249Z,24.95
2023-03-29T02:15:24.279Z,24.95
2023-03-29T02:16:24.271Z,24.95
2023-03-29T02:17:24.415Z,24.95
2023-03-29T02:18:24.321Z,24.95
2023-03-29T02:19:24.386Z,24.95
2023-03-29T02:20:24.388Z,24.94
2023-03-29T02:21:24.402Z,24.95
2023-03-29T02:22:24.424Z,24.95
2023-03-29T02:23:24.458Z,24.94
2023-03-29T02:24:24.484Z,24.94
2023-03-29T02:25:24.564Z,24.94
2023-03-29T02:26:24.526Z,24.95
2023-03-29T02:27:24.524Z,24.94
2023-03-29T02:28:24.594Z,24.94
2023-03-29T02:29:24.590Z,24.94
2023-03-29T02:30:24.634Z,24.94
2023-03-29T02:31:24.718Z,24.93
2023-03-29T02:32:24.676Z,24.94
2023-03-29T02:33:24.713Z,24.94
2023-03-29T02:34:24.729Z,24.93
2023-03-29T02:35:24.757Z,24.93
2023-03-29T02:36:24.815Z,24.93
2023-03-29T02:37:24.808Z,24.93
2023-03-29T02:38:24.846Z,24.93
2023-03-29T02:39:24.881Z,24.93
2023-03-29T02:40:24.892Z,24.93
2023-03-29T02:41:24.885Z,24.93
2023-03-29T02:42:24.944Z,24.93
2023-03-29T02:43:25.878Z,24.92
2023-03-29T02:44:25.022Z,24.92
2023-03-29T02:45:24.991Z,24.93
2023-03-29T02:46:25.079Z,24.92
2023-03-29T02:47:25.121Z,24.93
2023-03-29T02:48:25.134Z,24.93
2023-03-29T02:49:25.152Z,24.93
2023-03-29T02:50:25.169Z,24.92
2023-03-29T02:51:25.217Z,24.92
2023-03-29T02:52:25.193Z,24.92
2023-03-29T02:53:25.283Z,24.92
2023-03-29T02:54:25.288Z,24.92
2023-03-29T02:55:25.330Z,24.91
2023-03-29T02:56:25.333Z,24.92
2023-03-29T02:57:25.418Z,24.91
2023-03-29T02:58:25.430Z,24.91
2023-03-29T02:59:25.428Z,24.91
2023-03-29T03:00:25.459Z,24.92
2023-03-29T03:01:25.536Z,24.91
2023-03-29T03:02:25.607Z,24.91
2023-03-29T03:03:25.606Z,24.91
2023-03-29T03:04:25.552Z,24.91
2023-03-29T03:05:25.595Z,24.91
2023-03-29T03:06:25.654Z,24.92
2023-03-29T03:07:25.686Z,24.91
2023-03-29T03:08:25.686Z,24.90
2023-03-29T03:09:25.729Z,24.91
2023-03-29T03:10:25.741Z,24.91
2023-03-29T03:11:25.785Z,24.91
2023-03-29T03:12:25.811Z,24.91
2023-03-29T03:13:25.891Z,24.91
2023-03-29T03:14:25.889Z,24.91
2023-03-29T03:15:25.881Z,24.91
2023-03-29T03:16:25.947Z,24.91
2023-03-29T03:17:25.942Z,24.90
2023-03-29T03:18:25.965Z,24.90
2023-03-29T03:19:25.998Z,24.91
2023-03-29T03:20:26.046Z,24.90
2023-03-29T03:21:26.060Z,24.91
2023-03-29T03:22:26.110Z,24.90
2023-03-29T03:23:26.132Z,24.91
2023-03-29T03:24:26.180Z,24.90
2023-03-29T03:25:26.206Z,24.91
2023-03-29T03:26:26.236Z,24.90
2023-03-29T03:27:26.270Z,24.90
2023-03-29T03:28:26.295Z,24.91
2023-03-29T03:29:26.316Z,24.91
2023-03-29T03:30:26.327Z,24.91
2023-03-29T03:31:26.401Z,24.91
2023-03-29T03:32:26.430Z,24.91
2023-03-29T03:33:26.430Z,24.91
2023-03-29T03:34:26.438Z,24.90
2023-03-29T03:35:26.512Z,24.90
2023-03-29T03:36:26.533Z,24.91
2023-03-29T03:37:26.525Z,24.91
2023-03-29T03:38:26.612Z,24.90
2023-03-29T03:39:26.617Z,24.91
2023-03-29T03:40:28.218Z,24.91
2023-03-29T03:41:26.679Z,24.91
2023-03-29T03:42:26.713Z,24.91
2023-03-29T03:43:26.744Z,24.90
2023-03-29T03:44:26.776Z,24.91
2023-03-29T03:45:26.832Z,24.91
2023-03-29T03:46:28.404Z,24.91
2023-03-29T03:47:26.848Z,24.91
2023-03-29T03:48:26.835Z,24.91
2023-03-29T03:49:26.818Z,24.91
2023-03-29T03:50:26.827Z,24.91
2023-03-29T03:51:26.802Z,24.91
2023-03-29T03:52:26.760Z,24.91
2023-03-29T03:53:26.795Z,24.91
2023-03-29T03:54:26.790Z,24.91
2023-03-29T03:55:26.792Z,24.91
2023-03-29T03:56:26.765Z,24.91
2023-03-29T03:57:26.760Z,24.91
2023-03-29T03:58:26.749Z,24.90
2023-03-29T03:59:26.754Z,24.91
2023-03-29T04:00:26.722Z,24.90
2023-03-29T04:01:26.723Z,24.91
2023-03-29T04:02:26.775Z,24.91
2023-03-29T04:03:26.840Z,24.91
2023-03-29T04:04:26.735Z,24.90
2023-03-29T04:05:26.736Z,24.90
2023-03-29T04:06:27.282Z,24.90
2023-03-29T04:07:26.709Z,24.90
2023-03-29T04:08:26.720Z,24.91
2023-03-29T04:09:26.703Z,24.90
2023-03-29T04:10:26.686Z,24.89
2023-03-29T04:11:26.662Z,24.90
2023-03-29T04:12:26.671Z,24.90
2023-03-29T04:13:26.684Z,24.90
2023-03-29T04:14:26.666Z,24.90
2023-03-29T04:15:26.710Z,24.90
2023-03-29T04:16:26.723Z,24.90
2023-03-29T04:17:26.648Z,24.89
2023-03-29T04:18:26.744Z,24.89
2023-03-29T04:19:26.617Z,24.90
2023-03-29T04:20:26.630Z,24.89
2023-03-29T04:21:26.617Z,24.89
2023-03-29T04:22:26.610Z,24.89
2023-03-29T04:23:26.618Z,24.90
2023-03-29T04:24:26.585Z,24.89
2023-03-29T04:25:26.609Z,24.89
2023-03-29T04:26:26.601Z,24.89
2023-03-29T04:27:26.602Z,24.89
2023-03-29T04:28:26.569Z,24.89
2023-03-29T04:29:26.565Z,24.89
2023-03-29T04:30:26.560Z,24.89
2023-03-29T04:31:26.567Z,24.88
2023-03-29T04:32:26.599Z,24.88
2023-03-29T04:33:26.552Z,24.88
2023-03-29T04:34:26.533Z,24.88
2023-03-29T04:35:26.557Z,24.87
2023-03-29T04:36:26.536Z,24.88
2023-03-29T04:37:26.518Z,24.87
2023-03-29T04:38:26.529Z,24.87
2023-03-29T04:39:26.525Z,24.87
2023-03-29T04:40:26.536Z,24.86
2023-03-29T04:41:26.530Z,24.87
2023-03-29T04:42:26.506Z,24.87
2023-03-29T04:43:26.482Z,24.88
2023-03-29T04:44:26.480Z,24.88
2023-03-29T04:45:26.550Z,24.87
2023-03-29T04:46:26.911Z,24.87
2023-03-29T04:47:26.613Z,24.87
2023-03-29T04:48:26.600Z,24.87
2023-03-29T04:49:26.633Z,24.87
2023-03-29T04:50:26.664Z,24.87
2023-03-29T04:51:26.678Z,24.87
2023-03-29T04:52:26.814Z,24.87
2023-03-29T04:53:26.748Z,24.87
2023-03-29T04:54:26.802Z,24.86
2023-03-29T04:55:26.852Z,24.87
2023-03-29T04:56:26.848Z,24.87
2023-03-29T04:57:26.964Z,24.86
2023-03-29T04:58:30.692Z,24.86
2023-03-29T04:59:27.909Z,24.86
2023-03-29T05:00:33.930Z,24.86
2023-03-29T05:01:26.982Z,24.86
2023-03-29T05:02:26.928Z,24.86
2023-03-29T05:03:26.890Z,24.87
2023-03-29T05:04:26.941Z,24.86
2023-03-29T05:05:26.902Z,24.86
2023-03-29T05:06:26.858Z,24.86
2023-03-29T05:07:26.850Z,24.86
2023-03-29T05:08:26.887Z,24.86
2023-03-29T05:09:26.868Z,24.86
2023-03-29T05:10:26.835Z,24.86
2023-03-29T05:11:26.821Z,24.87
2023-03-29T05:12:26.811Z,24.87
2023-03-29T05:13:26.838Z,24.86
2023-03-29T05:14:26.818Z,24.86
2023-03-29T05:15:26.804Z,24.86
2023-03-29T05:16:26.877Z,24.85
2023-03-29T05:17:26.796Z,24.86
2023-03-29T05:18:26.821Z,24.85
2023-03-29T05:19:26.790Z,24.85
2023-03-29T05:20:26.776Z,24.85
2023-03-29T05:21:26.778Z,24.85
2023-03-29T05:23:45.559Z,24.82
2023-03-29T05:24:45.622Z,24.84
2023-03-29T05:25:45.636Z,24.84
2023-03-29T05:26:45.708Z,24.84
2023-03-29T05:27:45.736Z,24.84
2023-03-29T05:28:45.749Z,24.85
2023-03-29T05:29:45.762Z,24.85
2023-03-29T05:30:45.820Z,24.84
2023-03-29T05:31:45.859Z,24.84
2023-03-29T05:32:45.886Z,24.84
2023-03-29T05:33:45.902Z,24.84
2023-03-29T05:34:45.929Z,24.84
2023-03-29T05:35:46.024Z,24.84
2023-03-29T05:36:46.043Z,24.84
2023-03-29T05:37:46.090Z,24.83
2023-03-29T05:38:46.559Z,24.84
2023-03-29T05:39:46.236Z,24.83
2023-03-29T05:40:46.295Z,24.83
2023-03-29T05:41:46.346Z,24.82
2023-03-29T05:42:46.417Z,24.82
2023-03-29T05:43:46.572Z,24.80
2023-03-29T05:44:46.519Z,24.81
2023-03-29T05:45:53.628Z,24.78
2023-03-29T05:46:46.516Z,24.77
2023-03-29T05:47:46.545Z,24.77
2023-03-29T05:48:46.530Z,24.78
2023-03-29T05:49:46.553Z,24.77
2023-03-29T05:50:46.484Z,24.78
2023-03-29T05:51:46.509Z,24.79
2023-03-29T05:52:46.496Z,24.80
2023-03-29T05:53:46.503Z,24.80
2023-03-29T05:54:46.469Z,24.82
2023-03-29T05:55:46.474Z,24.83
2023-03-29T05:56:46.558Z,24.84
2023-03-29T05:57:46.497Z,24.85
2023-03-29T05:58:46.446Z,24.87
2023-03-29T05:59:46.424Z,24.88
2023-03-29T06:00:46.454Z,24.90
2023-03-29T06:01:46.448Z,24.91
2023-03-29T06:02:46.507Z,24.92
2023-03-29T06:03:46.632Z,24.94
2023-03-29T06:04:46.598Z,24.95
2023-03-29T06:05:49.065Z,24.97
2023-03-29T06:06:46.428Z,24.98
2023-03-29T06:07:46.385Z,24.99
2023-03-29T06:08:46.439Z,25.00
2023-03-29T06:09:46.372Z,25.01
2023-03-29T06:10:46.380Z,25.00
2023-03-29T06:11:46.420Z,25.00
2023-03-29T06:12:46.402Z,25.02
2023-03-29T06:13:47.128Z,25.03
2023-03-29T06:14:46.327Z,25.04
2023-03-29T06:15:46.353Z,25.05
2023-03-29T06:16:46.345Z,25.07
2023-03-29T06:17:46.512Z,25.08
2023-03-29T06:18:46.332Z,25.09
2023-03-29T06:19:46.351Z,25.10
2023-03-29T06:20:46.357Z,25.11
2023-03-29T06:21:46.264Z,25.12
2023-03-29T06:22:46.303Z,25.13
2023-03-29T06:23:46.315Z,25.14
2023-03-29T06:24:46.293Z,25.15
2023-03-29T06:25:46.277Z,25.15
2023-03-29T06:26:46.235Z,25.17
2023-03-29T06:27:46.299Z,25.16
2023-03-29T06:28:46.232Z,25.18
2023-03-29T06:29:46.249Z,25.19
2023-03-29T06:30:46.361Z,25.20
2023-03-29T06:31:46.369Z,25.20
2023-03-29T06:32:46.281Z,25.21
2023-03-29T06:33:46.236Z,25.21
2023-03-29T06:34:46.249Z,25.21
2023-03-29T06:35:46.228Z,25.20
2023-03-29T06:36:46.180Z,25.21
2023-03-29T06:37:46.213Z,25.19
2023-03-29T06:38:46.171Z,25.19
2023-03-29T06:39:46.590Z,25.18
2023-03-29T06:40:46.197Z,25.17
2023-03-29T06:41:46.187Z,25.17
2023-03-29T06:42:46.131Z,25.16
2023-03-29T06:43:46.145Z,25.16
2023-03-29T06:44:46.616Z,25.15
2023-03-29T06:45:46.250Z,25.15
2023-03-29T06:46:46.160Z,25.15
2023-03-29T06:47:46.354Z,25.15
2023-03-29T06:48:46.146Z,25.14
2023-03-29T06:49:46.586Z,25.13
2023-03-29T06:50:46.066Z,25.13
2023-03-29T06:51:46.091Z,25.13
2023-03-29T06:52:46.058Z,25.13
2023-03-29T06:53:46.071Z,25.13
2023-03-29T06:54:46.081Z,25.12
2023-03-29T06:55:46.018Z,25.11
2023-03-29T06:56:46.105Z,25.11
2023-03-29T06:57:46.020Z,25.10
2023-03-29T06:58:46.045Z,25.10
2023-03-29T06:59:46.054Z,25.09
2023-03-29T07:00:46.020Z,25.08
2023-03-29T07:01:46.100Z,25.07
2023-03-29T07:02:46.073Z,25.06
2023-03-29T07:03:46.775Z,25.06
2023-03-29T07:04:46.000Z,25.05
2023-03-29T07:05:45.998Z,25.04
2023-03-29T07:06:45.949Z,25.03
2023-03-29T07:07:45.953Z,25.02
2023-03-29T07:08:45.918Z,25.02
2023-03-29T07:09:45.995Z,25.02
2023-03-29T07:10:45.961Z,25.00
2023-03-29T07:11:45.930Z,25.00
2023-03-29T07:12:45.937Z,24.99
2023-03-29T07:13:45.904Z,24.98
2023-03-29T07:14:46.837Z,24.98
2023-03-29T07:15:45.907Z,24.98
2023-03-29T07:16:45.932Z,24.99
2023-03-29T07:17:45.912Z,24.99
2023-03-29T07:18:45.874Z,24.99
2023-03-29T07:19:45.881Z,24.99
2023-03-29T07:20:45.914Z,24.99
2023-03-29T07:21:45.845Z,24.98
2023-03-29T07:22:45.860Z,24.98
2023-03-29T07:23:45.837Z,24.98
2023-03-29T07:24:45.867Z,24.98
2023-03-29T07:25:45.866Z,24.98
2023-03-29T07:27:45.895Z,24.99
2023-03-29T07:28:45.900Z,24.98
2023-03-29T07:29:45.936Z,24.98
2023-03-29T07:30:45.973Z,24.98
2023-03-29T07:31:45.942Z,24.99
2023-03-29T07:32:46.014Z,24.98
2023-03-29T07:33:46.098Z,24.97
2023-03-29T07:34:46.041Z,24.97
2023-03-29T07:35:46.146Z,24.97
2023-03-29T07:36:46.048Z,24.97
2023-03-29T07:37:46.057Z,24.98
2023-03-29T07:38:46.076Z,24.98
2023-03-29T07:39:46.625Z,24.97
2023-03-29T07:40:46.125Z,24.97
2023-03-29T07:41:46.132Z,24.97
2023-03-29T07:42:46.140Z,24.96
2023-03-29T07:43:46.200Z,24.98
2023-03-29T07:44:46.141Z,24.99
2023-03-29T07:45:46.610Z,24.99
2023-03-29T07:46:46.171Z,25.00
2023-03-29T07:47:46.272Z,25.01
2023-03-29T07:48:46.246Z,25.02
2023-03-29T07:49:46.173Z,25.03
2023-03-29T07:50:46.248Z,25.04
2023-03-29T07:51:46.280Z,25.04
2023-03-29T07:52:46.248Z,25.04
2023-03-29T07:53:46.204Z,25.06
2023-03-29T07:54:46.225Z,25.07
2023-03-29T07:55:47.178Z,25.08
2023-03-29T07:56:46.293Z,25.09
2023-03-29T07:57:46.227Z,25.09
2023-03-29T07:58:46.244Z,25.09
2023-03-29T07:59:46.213Z,25.10
2023-03-29T08:00:46.246Z,25.12
2023-03-29T08:01:46.231Z,25.12
2023-03-29T08:02:46.198Z,25.13
2023-03-29T08:03:46.292Z,25.13
2023-03-29T08:04:46.284Z,25.12
2023-03-29T08:05:46.190Z,25.14
2023-03-29T08:06:46.183Z,25.14
2023-03-29T08:07:46.242Z,25.15
2023-03-29T08:08:46.210Z,25.14
2023-03-29T08:09:46.205Z,25.16
2023-03-29T08:10:46.222Z,25.16
2023-03-29T08:11:46.203Z,25.17
2023-03-29T08:12:46.222Z,25.17
2023-03-29T08:13:46.265Z,25.18
2023-03-29T08:14:46.323Z,25.19
2023-03-29T08:15:46.758Z,25.19
2023-03-29T08:16:46.405Z,25.20
2023-03-29T08:17:46.514Z,25.21
2023-03-29T08:18:46.509Z,25.21
2023-03-29T08:19:50.822Z,25.21
2023-03-29T08:20:46.637Z,25.22
2023-03-29T08:21:46.552Z,25.22
2023-03-29T08:22:46.514Z,25.22
2023-03-29T08:23:46.530Z,25.24
2023-03-29T08:24:46.525Z,25.24
2023-03-29T08:25:46.529Z,25.24
2023-03-29T08:26:46.701Z,25.25
2023-03-29T08:27:46.517Z,25.25
2023-03-29T08:28:46.564Z,25.26
2023-03-29T08:29:46.585Z,25.26
2023-03-29T08:30:46.662Z,25.27
2023-03-29T08:31:46.694Z,25.27
2023-03-29T08:32:50.326Z,25.27
2023-03-29T08:33:46.706Z,25.27
2023-03-29T08:34:46.714Z,25.28
2023-03-29T08:35:46.740Z,25.29
2023-03-29T08:36:46.733Z,25.30
2023-03-29T08:37:46.684Z,25.30
2023-03-29T08:38:46.703Z,25.30
2023-03-29T08:39:46.687Z,25.31
2023-03-29T08:40:46.709Z,25.30
2023-03-29T08:41:46.717Z,25.31
2023-03-29T08:42:46.647Z,25.31
2023-03-29T08:43:46.730Z,25.32
2023-03-29T08:44:46.733Z,25.32
2023-03-29T08:45:49.641Z,25.33
2023-03-29T08:46:46.857Z,25.34
2023-03-29T08:47:46.820Z,25.34
2023-03-29T08:48:46.775Z,25.35
2023-03-29T08:49:46.757Z,25.35
2023-03-29T08:50:46.771Z,25.35
2023-03-29T08:51:46.783Z,25.34
2023-03-29T08:52:46.764Z,25.34
2023-03-29T08:53:46.741Z,25.34
2023-03-29T08:54:46.719Z,25.35
2023-03-29T08:55:47.124Z,25.36
2023-03-29T08:56:46.849Z,25.36
2023-03-29T08:57:46.716Z,25.36
2023-03-29T08:58:46.733Z,25.36
2023-03-29T08:59:46.759Z,25.38
2023-03-29T09:00:47.156Z,25.38
2023-03-29T09:01:48.081Z,25.38
2023-03-29T09:02:46.716Z,25.39
2023-03-29T09:03:46.836Z,25.38
2023-03-29T09:04:46.649Z,25.38
2023-03-29T09:05:46.684Z,25.40
2023-03-29T09:06:46.649Z,25.41
2023-03-29T09:07:46.626Z,25.41
2023-03-29T09:08:46.701Z,25.42
2023-03-29T09:09:46.736Z,25.42
2023-03-29T09:10:47.196Z,25.43
2023-03-29T09:11:46.952Z,25.42
2023-03-29T09:12:46.874Z,25.42
2023-03-29T09:13:46.953Z,25.42
2023-03-29T09:14:46.989Z,25.43
2023-03-29T09:15:47.173Z,25.44
2023-03-29T09:16:47.141Z,25.43
2023-03-29T09:17:49.451Z,25.43
2023-03-29T09:18:47.304Z,25.43
2023-03-29T09:19:47.358Z,25.43
2023-03-29T09:20:47.439Z,25.43
2023-03-29T09:21:47.495Z,25.43
2023-03-29T09:22:47.483Z,25.42
2023-03-29T09:23:47.519Z,25.43
2023-03-29T09:24:47.596Z,25.42
2023-03-29T09:25:53.506Z,25.42
2023-03-29T09:26:48.597Z,25.41
2023-03-29T09:27:47.634Z,25.42
2023-03-29T09:28:47.637Z,25.42
2023-03-29T09:29:47.590Z,25.41
2023-03-29T09:30:47.642Z,25.40
2023-03-29T09:31:47.663Z,25.40
2023-03-29T09:32:47.795Z,25.40
2023-03-29T09:33:47.593Z,25.39
2023-03-29T09:34:47.616Z,25.38
2023-03-29T09:35:47.644Z,25.38
2023-03-29T09:36:47.680Z,25.38
2023-03-29T09:37:47.736Z,25.37
2023-03-29T09:38:47.763Z,25.36
2023-03-29T09:39:47.837Z,25.36
2023-03-29T09:40:47.846Z,25.36
2023-03-29T09:41:48.635Z,25.35
2023-03-29T09:42:47.956Z,25.35
2023-03-29T09:43:48.021Z,25.34
2023-03-29T09:44:48.037Z,25.34
2023-03-29T09:45:48.190Z,25.34
2023-03-29T09:46:48.111Z,25.33
2023-03-29T09:47:48.185Z,25.33
2023-03-29T09:48:48.206Z,25.33
2023-03-29T09:49:48.281Z,25.33
2023-03-29T09:50:48.287Z,25.34
2023-03-29T09:51:48.340Z,25.34
2023-03-29T09:52:48.409Z,25.33
2023-03-29T09:53:48.448Z,25.33
2023-03-29T09:54:48.485Z,25.32
2023-03-29T09:55:50.379Z,25.33
2023-03-29T09:56:48.607Z,25.32
2023-03-29T09:57:48.722Z,25.33
2023-03-29T09:58:48.712Z,25.32
2023-03-29T09:59:48.785Z,25.32
2023-03-29T10:00:48.849Z,25.33
2023-03-29T10:01:48.939Z,25.33
2023-03-29T10:02:48.981Z,25.34
2023-03-29T10:03:49.041Z,25.33
2023-03-29T10:04:48.953Z,25.33
2023-03-29T10:05:49.191Z,25.33
2023-03-29T10:06:49.015Z,25.33
2023-03-29T10:07:49.056Z,25.34
2023-03-29T10:08:49.095Z,25.34
2023-03-29T10:09:49.112Z,25.32
2023-03-29T10:10:49.098Z,25.32
2023-03-29T10:11:49.107Z,25.32
2023-03-29T10:12:49.173Z,25.32
2023-03-29T10:13:49.142Z,25.33
2023-03-29T10:14:51.496Z,25.34
2023-03-29T10:15:49.694Z,25.35
2023-03-29T10:16:49.229Z,25.34
2023-03-29T10:17:49.217Z,25.33
2023-03-29T10:18:49.132Z,25.34
2023-03-29T10:19:49.154Z,25.34
2023-03-29T10:20:49.161Z,25.36
2023-03-29T10:21:49.163Z,25.36
2023-03-29T10:22:49.127Z,25.38
2023-03-29T10:23:49.133Z,25.38
2023-03-29T10:24:49.097Z,25.39
2023-03-29T10:25:49.156Z,25.39
2023-03-29T10:26:49.168Z,25.40
2023-03-29T10:27:49.174Z,25.40
2023-03-29T10:28:49.690Z,25.40
2023-03-29T10:29:49.160Z,25.39
2023-03-29T10:30:49.094Z,25.39
2023-03-29T10:31:49.093Z,25.40
2023-03-29T10:32:49.063Z,25.41
2023-03-29T10:33:49.051Z,25.40
2023-03-29T10:34:49.038Z,25.40
2023-03-29T10:35:49.014Z,25.41
2023-03-29T10:36:49.010Z,25.41
2023-03-29T10:37:48.998Z,25.42
2023-03-29T10:38:49.030Z,25.42
2023-03-29T10:39:49.041Z,25.41
2023-03-29T10:40:48.991Z,25.42
2023-03-29T10:41:48.993Z,25.42
2023-03-29T10:42:48.948Z,25.42
2023-03-29T10:43:48.958Z,25.42
2023-03-29T10:44:48.955Z,25.42
2023-03-29T10:45:49.016Z,25.43
2023-03-29T10:46:48.967Z,25.43
2023-03-29T10:47:49.077Z,25.43
2023-03-29T10:48:48.953Z,25.44
2023-03-29T10:49:50.387Z,25.44
2023-03-29T10:50:48.916Z,25.44
2023-03-29T10:51:48.908Z,25.44
2023-03-29T10:52:48.905Z,25.44
2023-03-29T10:53:48.927Z,25.45
2023-03-29T10:54:48.932Z,25.45
2023-03-29T10:55:48.877Z,25.44
2023-03-29T10:56:50.271Z,25.44
2023-03-29T10:57:48.894Z,25.44
2023-03-29T10:58:48.868Z,25.44
2023-03-29T10:59:48.878Z,25.44
2023-03-29T11:00:48.867Z,25.44
2023-03-29T11:01:48.924Z,25.45
2023-03-29T11:02:48.985Z,25.45
2023-03-29T11:03:48.996Z,25.46
2023-03-29T11:04:48.907Z,25.46
2023-03-29T11:05:48.864Z,25.46
2023-03-29T11:06:48.868Z,25.45
2023-03-29T11:07:48.856Z,25.44
2023-03-29T11:08:48.872Z,25.45
2023-03-29T11:09:48.877Z,25.44
2023-03-29T11:10:48.891Z,25.43
2023-03-29T11:11:48.883Z,25.44
2023-03-29T11:12:48.861Z,25.44
2023-03-29T11:13:48.849Z,25.44
2023-03-29T11:14:48.909Z,25.43
2023-03-29T11:15:48.949Z,25.44
2023-03-29T11:16:48.910Z,25.44
2023-03-29T11:17:48.929Z,25.44
2023-03-29T11:18:48.946Z,25.45
2023-03-29T11:19:48.919Z,25.45
2023-03-29T11:20:48.901Z,25.45
2023-03-29T11:21:48.972Z,25.46
2023-03-29T11:22:48.911Z,25.45
2023-03-29T11:23:48.921Z,25.45
2023-03-29T11:24:48.928Z,25.46
2023-03-29T11:25:49.224Z,25.46
2023-03-29T11:26:48.942Z,25.45
2023-03-29T11:27:48.980Z,25.45
2023-03-29T11:28:49.017Z,25.44
2023-03-29T11:29:49.052Z,25.44
2023-03-29T11:30:49.040Z,25.44
2023-03-29T11:31:49.292Z,25.45
2023-03-29T11:32:49.176Z,25.46
2023-03-29T11:33:49.165Z,25.47
2023-03-29T11:34:49.147Z,25.47
2023-03-29T11:35:49.228Z,25.48
2023-03-29T11:36:49.779Z,25.47
2023-03-29T11:37:49.232Z,25.48
2023-03-29T11:38:49.286Z,25.48
2023-03-29T11:39:49.303Z,25.47
2023-03-29T11:40:49.294Z,25.48
2023-03-29T11:41:49.353Z,25.48
2023-03-29T11:42:49.358Z,25.47
2023-03-29T11:43:49.364Z,25.49
2023-03-29T11:44:49.424Z,25.48
2023-03-29T11:45:49.431Z,25.48
2023-03-29T11:46:49.566Z,25.48
2023-03-29T11:47:49.502Z,25.49
2023-03-29T11:48:49.553Z,25.49
2023-03-29T11:49:49.580Z,25.50
2023-03-29T11:50:49.629Z,25.51
2023-03-29T11:51:49.675Z,25.52
2023-03-29T11:52:49.657Z,25.54
2023-03-29T11:53:49.692Z,25.54
2023-03-29T11:54:49.748Z,25.55
2023-03-29T11:55:49.752Z,25.57
2023-03-29T11:56:49.879Z,25.58
2023-03-29T11:57:49.868Z,25.60
2023-03-29T11:58:49.982Z,25.60
2023-03-29T11:59:49.997Z,25.62
2023-03-29T12:00:50.066Z,25.61
2023-03-29T12:01:50.205Z,25.62
2023-03-29T12:02:50.270Z,25.62
2023-03-29T12:03:50.376Z,25.63
2023-03-29T12:04:50.337Z,25.65
2023-03-29T12:05:50.387Z,25.67
2023-03-29T12:06:50.451Z,25.68
2023-03-29T12:07:50.515Z,25.69
2023-03-29T12:08:50.533Z,25.69
2023-03-29T12:09:50.613Z,25.70
2023-03-29T12:10:50.673Z,25.70
2023-03-29T12:11:50.741Z,25.70
2023-03-29T12:12:50.812Z,25.69
2023-03-29T12:13:50.861Z,25.70
2023-03-29T12:14:50.920Z,25.71
2023-03-29T12:15:50.970Z,25.71
2023-03-29T12:16:51.098Z,25.72
2023-03-29T12:17:51.156Z,25.73
2023-03-29T12:18:51.115Z,25.75
2023-03-29T12:19:51.205Z,25.76
2023-03-29T12:20:51.266Z,25.76
2023-03-29T12:21:51.314Z,25.75
2023-03-29T12:22:51.374Z,25.77
2023-03-29T12:23:51.463Z,25.78
2023-03-29T12:24:51.527Z,25.79
2023-03-29T12:25:51.511Z,25.80
2023-03-29T12:26:51.569Z,25.80
2023-03-29T12:27:51.628Z,25.79
2023-03-29T12:28:51.692Z,25.79
2023-03-29T12:29:51.671Z,25.79
2023-03-29T12:30:51.723Z,25.79
2023-03-29T12:31:51.811Z,25.79
2023-03-29T12:32:51.935Z,25.78
2023-03-29T12:33:51.908Z,25.78
2023-03-29T12:34:51.932Z,25.78
2023-03-29T12:35:51.985Z,25.77
2023-03-29T12:36:52.084Z,25.76
2023-03-29T12:37:52.090Z,25.75
2023-03-29T12:38:52.163Z,25.74
2023-03-29T12:39:52.199Z,25.74
2023-03-29T12:40:52.277Z,25.73
2023-03-29T12:41:52.336Z,25.73
2023-03-29T12:42:52.343Z,25.73
2023-03-29T12:43:52.399Z,25.72
2023-03-29T12:44:52.462Z,25.71
2023-03-29T12:45:52.929Z,25.71
2023-03-29T12:46:52.572Z,25.70
2023-03-29T12:47:52.689Z,25.71
2023-03-29T12:48:52.694Z,25.70
2023-03-29T12:49:52.733Z,25.71
2023-03-29T12:50:52.777Z,25.70
2023-03-29T12:51:52.862Z,25.70
2023-03-29T12:52:52.925Z,25.71
2023-03-29T12:53:52.960Z,25.71
2023-03-29T12:54:52.999Z,25.71